Accueil
METAR-TAF:

METAR-TAF

Aéroports :

Derby Field

Lovelock, Nevada, États-Unis

latitude: 40-03-59N, longitude: 118-33-55W, altitude: 1190 m

Observation

Le bulletin a été fait il y a 39 minutes, à 20:53 UTC
Vent 16 kt de nord-est
Température 6°C
Humidité 65%
Pression 1005 hPa
Visibilité: 16.1 km
Nuages fragmentés à une hauteur de 4400 ft
Ciel couvert à une hauteur de 7000 ft

METAR: KLOL 202053Z AUTO 04016KT 10SM BKN044 OVC070 06/00 A2968 RMK AO2 PK WND 03027/1956 SLP048 60000 T00560000 58002

Heure: 13:32 (21:32 UTC)


TAF: absent

Observations et prévisions météorologiques de plus de 4000 aéroports (messages METAR et TAF).

Les stations disponibles sont représentées par des disques jaunes et rouges sur la carte.

Passer la souris dessus pour voir le nom de la station.

Cliquer dessus pour voir les observations et prévisions météorologiques.

Pour changer de carte: cliquez sur les boutons verts avec une croix noire pour zoomer, sur le bouton vert avec un tiret pour effectuer un zoom arrière, ou sur les flèches vertes pour les cartes adjacentes.


METAR-TAF: